Time;durP1;ratioP1;P1;durP2;ratioP2;P2;SDS_P1;SDS_P2;PMS_P1;PMS_P2;Temp;Humidity;BMP_temperature;BMP_pressure;BME280_temperature;BME280_humidity;BME280_pressure;Samples;Min_cycle;Max_cycle;Signal;HPM_P1;HPM_P2
2021/07/24 00:01:03;;;;;;;10.98;7.28;;;;;;;14.90;100.00;101272.06;6327997;28;20059;-78
2021/07/24 00:04:05;;;;;;;13.73;8.20;;;;;;;14.89;100.00;101273.84;6331814;28;20051;-78
2021/07/24 00:07:08;;;;;;;14.60;7.72;;;;;;;14.84;100.00;101265.34;6328963;28;20044;-78
2021/07/24 00:10:10;;;;;;;12.05;7.82;;;;;;;14.81;100.00;101265.56;6331521;28;20059;-79
2021/07/24 00:13:12;;;;;;;11.63;8.35;;;;;;;14.77;100.00;101260.56;6332242;28;20048;-78
2021/07/24 00:16:13;;;;;;;13.25;8.82;;;;;;;14.75;100.00;101259.78;6332186;28;20040;-79
2021/07/24 00:19:14;;;;;;;12.73;7.78;;;;;;;14.74;100.00;101255.44;6331734;28;20052;-78
2021/07/24 00:22:17;;;;;;;11.13;7.78;;;;;;;14.70;100.00;101252.97;6331928;28;20537;-78
2021/07/24 00:25:19;;;;;;;14.65;8.27;;;;;;;14.63;100.00;101245.56;6331821;28;20055;-78
2021/07/24 00:28:20;;;;;;;11.80;8.38;;;;;;;14.49;100.00;101256.09;6331860;28;20059;-78
2021/07/24 00:31:21;;;;;;;12.70;8.55;;;;;;;14.34;100.00;101248.13;6331952;28;20047;-79
2021/07/24 00:34:23;;;;;;;13.38;8.23;;;;;;;14.24;100.00;101238.22;6332433;28;20055;-78
2021/07/24 00:37:25;;;;;;;11.70;7.95;;;;;;;14.26;100.00;101242.50;6332136;28;20048;-78
2021/07/24 00:40:28;;;;;;;14.45;8.60;;;;;;;14.29;100.00;101242.28;6331750;28;20427;-78
2021/07/24 00:43:32;;;;;;;12.40;8.80;;;;;;;14.29;100.00;101233.50;6332164;28;20550;-78
2021/07/24 00:46:36;;;;;;;12.52;9.25;;;;;;;14.25;100.00;101230.19;6330224;28;20055;-79
2021/07/24 00:49:38;;;;;;;14.27;8.95;;;;;;;14.17;100.00;101233.31;6332168;28;20044;-78
2021/07/24 00:52:42;;;;;;;13.65;8.45;;;;;;;14.10;100.00;101229.34;6329168;28;20044;-78
2021/07/24 00:55:43;;;;;;;16.05;9.05;;;;;;;14.01;100.00;101232.53;6330155;28;20048;-78
2021/07/24 00:58:45;;;;;;;13.88;8.77;;;;;;;14.02;100.00;101234.22;6331506;28;20048;-78
2021/07/24 01:01:46;;;;;;;14.57;8.73;;;;;;;14.05;100.00;101227.91;6324756;28;20502;-78
2021/07/24 01:04:48;;;;;;;12.23;8.57;;;;;;;14.03;100.00;101219.22;6325797;28;20044;-78
2021/07/24 01:07:50;;;;;;;13.25;9.68;;;;;;;13.95;100.00;101225.84;6326889;28;20134;-78
2021/07/24 01:10:54;;;;;;;14.07;8.80;;;;;;;13.92;100.00;101225.16;6323510;28;20052;-79
2021/07/24 01:13:55;;;;;;;12.48;8.88;;;;;;;13.93;100.00;101229.50;6327280;28;20131;-78
2021/07/24 01:16:56;;;;;;;13.80;8.68;;;;;;;13.99;100.00;101226.50;6324853;28;20067;-78
2021/07/24 01:19:58;;;;;;;14.50;9.85;;;;;;;14.01;100.00;101224.59;6322779;28;20055;-78
2021/07/24 01:23:01;;;;;;;15.35;9.38;;;;;;;13.95;100.00;101225.84;6323944;28;20048;-78
2021/07/24 01:26:03;;;;;;;15.75;9.02;;;;;;;13.84;100.00;101219.47;6323350;28;20049;-78
2021/07/24 01:29:05;;;;;;;13.00;8.40;;;;;;;13.82;100.00;101216.94;6322405;28;20041;-78
2021/07/24 01:32:07;;;;;;;14.15;8.80;;;;;;;13.85;100.00;101215.88;6324756;28;20145;-77
2021/07/24 01:35:09;;;;;;;19.42;9.40;;;;;;;13.96;100.00;101224.03;6322531;28;20495;-78
2021/07/24 01:38:12;;;;;;;13.15;8.82;;;;;;;13.94;100.00;101212.69;6322389;28;20043;-78
2021/07/24 01:41:15;;;;;;;16.20;9.98;;;;;;;13.81;100.00;101209.97;6327130;28;20044;-78
2021/07/24 01:44:16;;;;;;;16.80;10.05;;;;;;;13.65;100.00;101206.50;6329670;28;20048;-78
2021/07/24 01:47:17;;;;;;;15.80;10.10;;;;;;;13.64;100.00;101213.59;6328658;28;20071;-77
2021/07/24 01:53:40;;;;;;;17.20;10.05;;;;;;;13.66;100.00;101201.13;6333427;28;20080;-79
2021/07/24 01:56:41;;;;;;;14.60;9.60;;;;;;;13.71;100.00;101200.84;6332044;28;20055;-77
2021/07/24 01:59:45;;;;;;;13.25;9.07;;;;;;;13.77;100.00;101191.75;6325603;28;20048;-78
2021/07/24 02:02:49;;;;;;;16.42;9.30;;;;;;;13.70;100.00;101186.78;6326466;28;20055;-78
2021/07/24 02:05:50;;;;;;;16.58;9.70;;;;;;;13.73;100.00;101175.22;6326308;28;20529;-81
2021/07/24 02:08:53;;;;;;;16.25;9.48;;;;;;;13.75;100.00;101175.09;6326121;28;20060;-78
2021/07/24 02:11:55;;;;;;;17.15;9.35;;;;;;;13.74;100.00;101173.41;6327017;28;20055;-79
2021/07/24 02:14:58;;;;;;;14.38;9.20;;;;;;;13.73;100.00;101166.44;6325973;28;20047;-78
2021/07/24 02:18:01;;;;;;;16.25;9.63;;;;;;;13.72;100.00;101168.25;6326142;28;20052;-78
2021/07/24 02:21:03;;;;;;;14.02;9.48;;;;;;;13.70;100.00;101160.38;6326358;28;20052;-78
2021/07/24 02:24:06;;;;;;;15.43;9.20;;;;;;;13.67;100.00;101157.94;6325767;28;20083;-77
2021/07/24 02:27:08;;;;;;;17.02;9.70;;;;;;;13.56;100.00;101155.06;6325682;28;20043;-78
2021/07/24 02:30:10;;;;;;;14.27;9.63;;;;;;;13.44;100.00;101153.16;6325268;28;20071;-77
2021/07/24 02:33:11;;;;;;;17.40;8.85;;;;;;;13.37;100.00;101143.91;6326017;28;20055;-77
2021/07/24 02:36:13;;;;;;;15.23;8.93;;;;;;;13.35;100.00;101141.38;6325269;28;20511;-78
2021/07/24 02:39:15;;;;;;;15.15;9.27;;;;;;;13.31;100.00;101128.44;6325018;28;20051;-78
2021/07/24 02:42:17;;;;;;;15.40;9.95;;;;;;;13.27;100.00;101126.91;6325241;28;20044;-78
2021/07/24 02:45:25;;;;;;;21.38;10.15;;;;;;;13.25;100.00;101126.13;6325214;28;20044;-78
2021/07/24 02:48:26;;;;;;;14.68;9.25;;;;;;;13.18;100.00;101125.63;6324436;28;20048;-77
2021/07/24 02:51:27;;;;;;;14.70;8.88;;;;;;;13.25;100.00;101129.63;6324997;28;20067;-78
2021/07/24 02:54:30;;;;;;;17.40;9.68;;;;;;;13.16;100.00;101120.41;6324781;28;20151;-78
2021/07/24 02:57:31;;;;;;;17.58;9.80;;;;;;;13.22;100.00;101129.81;6324815;28;20461;-78
2021/07/24 03:00:33;;;;;;;16.33;10.02;;;;;;;13.22;100.00;101129.81;6324825;28;20059;-78
2021/07/24 03:03:34;;;;;;;16.27;9.32;;;;;;;13.15;100.00;101131.91;6324613;28;20054;-78
2021/07/24 03:06:35;;;;;;;14.30;9.23;;;;;;;13.08;100.00;101135.00;6324672;28;20044;-78
2021/07/24 03:09:38;;;;;;;18.42;10.10;;;;;;;13.10;100.00;101135.78;6324638;28;20075;-77
2021/07/24 03:12:39;;;;;;;14.85;9.05;;;;;;;13.08;100.00;101138.50;6324825;28;20058;-77
2021/07/24 03:15:41;;;;;;;16.45;9.70;;;;;;;13.07;100.00;101134.16;6324455;28;20419;-79
2021/07/24 03:18:42;;;;;;;18.25;9.75;;;;;;;13.05;100.00;101125.47;6323998;28;20051;-77
2021/07/24 03:21:44;;;;;;;15.40;9.35;;;;;;;13.07;100.00;101134.16;6324161;28;20052;-78
2021/07/24 03:24:46;;;;;;;16.08;8.85;;;;;;;13.19;100.00;101136.09;6323985;28;20049;-77
2021/07/24 03:27:48;;;;;;;20.05;9.80;;;;;;;13.23;100.00;101128.03;6323548;28;20457;-78
2021/07/24 03:30:50;;;;;;;15.02;8.68;;;;;;;13.29;100.00;101127.66;6323638;28;20044;-78
2021/07/24 03:33:51;;;;;;;12.32;7.95;;;;;;;13.31;100.00;101125.81;6324076;28;20056;-77
2021/07/24 03:36:52;;;;;;;15.18;9.25;;;;;;;13.33;100.00;101130.03;6323988;28;20495;-78
2021/07/24 03:39:55;;;;;;;13.68;8.50;;;;;;;13.36;100.00;101140.44;6323428;28;20415;-78
2021/07/24 03:42:57;;;;;;;13.98;8.00;;;;;;;13.37;100.00;101154.47;6323559;28;20074;-78
2021/07/24 03:45:58;;;;;;;16.70;9.57;;;;;;;13.35;100.00;101156.34;6323438;28;20483;-78
2021/07/24 03:49:00;;;;;;;12.23;8.80;;;;;;;13.35;100.00;101143.13;6323237;28;20396;-78
2021/07/24 03:52:01;;;;;;;14.65;9.18;;;;;;;13.32;100.00;101143.34;6323632;28;20052;-78
2021/07/24 03:55:05;;;;;;;17.50;9.80;;;;;;;13.32;100.00;101149.47;6323793;28;20055;-77
2021/07/24 03:58:06;;;;;;;14.25;9.27;;;;;;;13.34;100.00;101137.00;6323251;28;20044;-78
2021/07/24 04:01:08;;;;;;;15.20;9.98;;;;;;;13.30;100.00;101143.41;6323548;28;20052;-78
2021/07/24 04:04:09;;;;;;;13.75;8.98;;;;;;;13.32;100.00;101138.06;6323039;28;20052;-78
2021/07/24 04:07:10;;;;;;;13.73;8.57;;;;;;;13.32;100.00;101132.78;6322941;28;20048;-78
2021/07/24 04:10:14;;;;;;;16.20;8.88;;;;;;;13.30;100.00;101145.19;6323050;28;20051;-77
2021/07/24 04:13:15;;;;;;;17.50;10.32;;;;;;;13.31;100.00;101146.91;6322859;28;20059;-77
2021/07/24 04:16:17;;;;;;;17.30;9.68;;;;;;;13.33;100.00;101145.03;6318739;28;20051;-77
2021/07/24 04:19:18;;;;;;;16.65;9.98;;;;;;;13.32;100.00;101152.09;6322647;28;20491;-78
2021/07/24 04:22:20;;;;;;;16.00;9.68;;;;;;;13.33;100.00;101145.03;6322799;28;20044;-77
2021/07/24 04:25:22;;;;;;;17.00;10.27;;;;;;;13.32;100.00;101140.69;6322965;28;20044;-78
2021/07/24 04:28:24;;;;;;;14.43;9.32;;;;;;;13.25;100.00;101134.06;6322920;28;20627;-78
2021/07/24 04:31:25;;;;;;;20.42;11.27;;;;;;;13.24;100.00;101140.28;6323105;28;20051;-78
2021/07/24 04:34:29;;;;;;;15.85;9.85;;;;;;;13.31;100.00;101139.84;6322642;28;20518;-77
2021/07/24 04:37:30;;;;;;;15.13;9.38;;;;;;;13.33;100.00;101135.31;6322681;28;20044;-77
2021/07/24 04:40:33;;;;;;;15.10;9.38;;;;;;;13.33;100.00;101137.09;6322569;28;20040;-78
2021/07/24 04:43:34;;;;;;;14.77;9.32;;;;;;;13.28;100.00;101155.00;6322530;28;20060;-78
2021/07/24 04:46:36;;;;;;;16.05;9.85;;;;;;;13.20;100.00;101144.84;6322549;28;20040;-78
2021/07/24 04:49:45;;;;;;;19.02;9.52;;;;;;;13.19;100.00;101148.44;6322321;28;20514;-78
2021/07/24 04:52:47;;;;;;;;;;;;;;;13.17;100.00;101150.28;6323091;28;20052;-78
2021/07/24 04:55:49;;;;;;;20.05;9.23;;;;;;;13.24;100.00;101148.19;6322476;28;20379;-78
2021/07/24 04:58:51;;;;;;;17.23;10.15;;;;;;;13.28;100.00;101144.44;6322605;28;20044;-78
2021/07/24 05:01:52;;;;;;;17.90;9.80;;;;;;;13.24;100.00;101135.84;6322488;28;20055;-77
2021/07/24 05:04:54;;;;;;;22.38;10.40;;;;;;;13.22;100.00;101137.75;6322236;28;20044;-78
2021/07/24 05:07:56;;;;;;;18.58;9.80;;;;;;;13.25;100.00;101144.63;6322242;28;20044;-78
2021/07/24 05:10:59;;;;;;;17.30;9.82;;;;;;;13.37;100.00;101138.63;6321829;28;20048;-77
2021/07/24 05:14:00;;;;;;;16.65;9.98;;;;;;;13.46;100.00;101140.72;6322381;28;20456;-77
2021/07/24 05:17:05;;;;;;;20.10;9.95;;;;;;;13.49;100.00;101148.47;6322090;28;20044;-79
2021/07/24 05:20:07;;;;;;;14.35;8.55;;;;;;;13.55;100.00;101148.09;6322080;28;20059;-78
2021/07/24 05:23:09;;;;;;;14.57;9.20;;;;;;;13.68;100.00;101148.22;6322410;28;20457;-78
2021/07/24 05:26:14;;;;;;;16.40;10.13;;;;;;;13.78;100.00;101140.59;6326037;28;20040;-78
2021/07/24 05:29:15;;;;;;;16.60;9.35;;;;;;;13.78;100.00;101136.16;6327084;28;20178;-78
2021/07/24 05:32:17;;;;;;;15.23;10.05;;;;;;;13.85;100.00;101128.69;6326984;28;20040;-78
2021/07/24 05:35:18;;;;;;;14.80;9.55;;;;;;;13.92;100.00;101119.47;6327090;28;20055;-77
2021/07/24 05:38:20;;;;;;;18.60;8.68;;;;;;;13.99;100.00;101117.28;6326604;28;20044;-77
2021/07/24 05:41:22;;;;;;;17.63;10.00;;;;;;;14.07;100.00;101125.59;6327036;28;20051;-78
2021/07/24 05:44:24;;;;;;;13.02;8.63;;;;;;;14.18;100.00;101128.44;6327414;28;20063;-77
2021/07/24 05:47:25;;;;;;;24.60;9.93;;;;;;;14.25;100.00;101124.44;6327860;28;20055;-78
2021/07/24 05:50:26;;;;;;;14.50;8.73;;;;;;;14.35;100.00;101117.66;6325965;28;20048;-77
2021/07/24 05:53:27;;;;;;;17.52;10.77;;;;;;;14.39;100.00;101115.66;6325840;28;20449;-77
2021/07/24 05:56:30;;;;;;;15.25;9.90;;;;;;;14.39;100.00;101111.19;6325686;28;20044;-77
2021/07/24 05:59:32;;;;;;;14.77;8.70;;;;;;;14.48;100.00;101099.22;6319604;28;20392;-76
2021/07/24 06:02:33;;;;;;;12.68;8.32;;;;;;;14.59;100.00;101096.75;6312616;28;20112;-77
2021/07/24 06:05:35;;;;;;;16.77;9.05;;;;;;;14.69;100.00;101089.06;6310005;28;20052;-76
2021/07/24 06:08:36;;;;;;;14.35;8.27;;;;;;;14.80;100.00;101085.72;6309736;28;20611;-76
2021/07/24 06:11:39;;;;;;;21.27;10.68;;;;;;;14.84;100.00;101080.13;6312905;28;20036;-76
2021/07/24 06:14:40;;;;;;;14.40;8.80;;;;;;;14.89;100.00;101085.94;6311814;28;20509;-76
2021/07/24 06:17:42;;;;;;;16.00;9.02;;;;;;;14.95;100.00;101074.97;6313133;28;20052;-77
2021/07/24 06:20:43;;;;;;;12.80;9.07;;;;;;;14.98;100.00;101074.75;6306768;28;20109;-76
2021/07/24 06:23:45;;;;;;;16.20;9.65;;;;;;;15.02;100.00;101070.13;6315689;28;20044;-77
2021/07/24 06:26:47;;;;;;;15.55;8.48;;;;;;;15.07;100.00;101048.63;6314714;28;20055;-76
2021/07/24 06:29:49;;;;;;;15.57;9.25;;;;;;;15.07;100.00;101044.19;6314525;28;20052;-76
2021/07/24 06:32:50;;;;;;;13.65;8.70;;;;;;;15.11;100.00;101034.25;6303821;28;20045;-77
2021/07/24 06:35:51;;;;;;;16.23;8.90;;;;;;;15.12;100.00;101034.13;6303148;28;20495;-77
2021/07/24 06:38:53;;;;;;;13.52;9.32;;;;;;;15.18;100.00;101030.25;6303187;28;20055;-76
2021/07/24 06:41:55;;;;;;;15.93;8.95;;;;;;;15.25;100.00;101020.06;6308412;28;20525;-77
2021/07/24 06:44:56;;;;;;;14.90;9.68;;;;;;;15.31;100.00;101015.22;6319702;28;20051;-74
2021/07/24 06:47:58;;;;;;;18.90;9.25;;;;;;;15.37;100.00;101016.56;6315555;28;20047;-77
2021/07/24 06:50:59;;;;;;;17.00;9.80;;;;;;;15.48;100.00;101016.66;6309864;28;20089;-77
2021/07/24 06:54:01;;;;;;;16.30;9.85;;;;;;;15.55;100.00;101009.16;6309948;28;20051;-76
2021/07/24 06:57:03;;;;;;;14.50;8.80;;;;;;;15.62;100.00;101013.06;6310096;28;20055;-77
2021/07/24 07:00:06;;;;;;;18.55;9.10;;;;;;;15.67;100.00;101008.34;6308780;28;20422;-76
2021/07/24 07:03:08;;;;;;;15.30;9.45;;;;;;;15.77;100.00;101009.38;6310748;28;20483;-77
2021/07/24 07:06:11;;;;;;;22.45;10.57;;;;;;;15.82;100.00;101011.69;6308270;28;20056;-76
2021/07/24 07:09:13;;;;;;;15.57;9.65;;;;;;;15.89;100.00;101007.63;6296658;28;20139;-76
2021/07/24 07:12:15;;;;;;;13.55;8.23;;;;;;;15.91;100.00;101011.88;6296754;28;20044;-76
2021/07/24 07:15:17;;;;;;;14.90;8.73;;;;;;;15.97;100.00;101008.78;6296832;28;20492;-76
2021/07/24 07:18:18;;;;;;;16.02;9.27;;;;;;;16.06;100.00;101009.94;6295959;28;20040;-76
2021/07/24 07:21:19;;;;;;;16.40;8.48;;;;;;;16.18;100.00;101001.09;6294163;28;20044;-76
2021/07/24 07:24:21;;;;;;;16.48;8.95;;;;;;;16.24;100.00;101000.63;6293589;28;20067;-76
2021/07/24 07:27:23;;;;;;;14.35;7.47;;;;;;;16.32;100.00;100997.44;6293495;28;20044;-76
2021/07/24 07:30:25;;;;;;;16.58;8.55;;;;;;;16.40;100.00;100991.56;6294352;28;20051;-77
2021/07/24 07:33:26;;;;;;;11.68;7.40;;;;;;;16.47;100.00;100984.84;6309874;28;20055;-77
2021/07/24 07:36:28;;;;;;;12.15;7.88;;;;;;;16.55;100.00;100986.94;6304706;28;20385;-77
2021/07/24 07:39:30;;;;;;;17.27;7.28;;;;;;;16.67;100.00;100980.72;6313452;28;20051;-77
2021/07/24 07:42:32;;;;;;;14.40;7.70;;;;;;;16.79;100.00;100979.81;6313178;28;20052;-77
2021/07/24 07:45:34;;;;;;;11.52;6.90;;;;;;;16.92;100.00;100969.09;6300864;28;20083;-76
2021/07/24 07:48:36;;;;;;;16.65;7.38;;;;;;;17.01;100.00;100963.09;6299981;28;20048;-78
2021/07/24 07:51:37;;;;;;;10.70;6.57;;;;;;;17.08;99.48;100968.75;6307301;28;20048;-79
2021/07/24 07:54:38;;;;;;;14.52;7.00;;;;;;;17.16;98.07;100969.03;6309367;28;20483;-78
2021/07/24 07:57:41;;;;;;;9.50;5.88;;;;;;;17.22;98.69;100976.53;6307592;28;20048;-78
2021/07/24 08:00:43;;;;;;;9.75;6.07;;;;;;;17.30;98.69;100960.81;6308557;28;20423;-79
2021/07/24 08:03:44;;;;;;;10.68;6.00;;;;;;;17.39;98.07;100965.41;6306779;28;20118;-78
2021/07/24 08:06:45;;;;;;;18.90;6.70;;;;;;;17.52;97.63;100970.63;6307765;28;20154;-76
2021/07/24 08:09:47;;;;;;;9.60;6.30;;;;;;;17.58;96.38;100982.59;6306564;28;20411;-77
2021/07/24 08:12:50;;;;;;;9.82;6.35;;;;;;;17.66;94.76;100981.00;6307716;28;20048;-78
2021/07/24 08:15:52;;;;;;;11.18;5.75;;;;;;;17.77;95.03;100974.88;6308443;28;20535;-77
2021/07/24 08:18:53;;;;;;;9.70;5.25;;;;;;;17.86;94.37;100970.63;6312480;28;20051;-74
2021/07/24 08:21:54;;;;;;;10.18;5.82;;;;;;;17.90;94.43;100972.09;6321876;28;20422;-79
2021/07/24 08:24:55;;;;;;;10.15;6.30;;;;;;;18.04;92.15;100971.81;6321870;28;20059;-78
2021/07/24 08:28:01;;;;;;;11.75;5.93;;;;;;;18.17;90.52;100959.19;6321616;28;20414;-76
2021/07/24 08:31:03;;;;;;;9.13;5.45;;;;;;;18.25;90.40;100951.41;6321269;28;20070;-78
2021/07/24 08:34:05;;;;;;;10.77;5.82;;;;;;;18.35;89.35;100948.88;6321929;28;20196;-78
2021/07/24 08:37:07;;;;;;;9.13;5.68;;;;;;;18.41;90.47;100951.00;6320355;28;20129;-76
2021/07/24 08:40:09;;;;;;;9.68;5.20;;;;;;;18.47;89.84;100947.81;6312433;28;20119;-77
2021/07/24 08:43:11;;;;;;;7.75;5.00;;;;;;;18.54;90.80;100950.00;6317432;28;20055;-76
2021/07/24 08:46:14;;;;;;;12.27;5.88;;;;;;;18.65;89.59;100948.09;6321391;28;20059;-76
2021/07/24 08:49:16;;;;;;;9.70;5.07;;;;;;;18.74;87.32;100943.84;6320980;28;20059;-76
2021/07/24 08:52:19;;;;;;;48.65;38.08;;;;;;;18.79;86.78;100944.31;6321325;28;20604;-76
2021/07/24 08:55:22;;;;;;;10.65;7.35;;;;;;;18.84;88.12;100941.25;6321165;28;20059;-77
2021/07/24 08:58:25;;;;;;;10.93;4.78;;;;;;;18.91;87.34;100924.63;6322406;28;20052;-76
2021/07/24 09:01:30;;;;;;;7.78;5.05;;;;;;;19.00;87.74;100926.50;6326438;28;20048;-77
2021/07/24 09:04:32;;;;;;;6.43;4.78;;;;;;;19.08;87.87;100915.19;6326507;28;20145;-77
2021/07/24 09:07:36;;;;;;;10.10;5.35;;;;;;;19.14;85.86;100924.47;6326598;28;20054;-76
2021/07/24 09:10:37;;;;;;;11.43;4.93;;;;;;;19.30;84.11;100926.63;6326110;28;20055;-77
2021/07/24 09:13:40;;;;;;;13.15;5.38;;;;;;;19.43;83.30;100924.59;6326269;28;20048;-76
2021/07/24 09:16:42;;;;;;;9.30;4.85;;;;;;;19.57;83.86;100921.53;6326213;28;20044;-77
2021/07/24 09:19:44;;;;;;;11.90;5.45;;;;;;;19.69;83.17;100919.66;6316447;28;20507;-77
2021/07/24 09:22:47;;;;;;;10.70;4.93;;;;;;;19.79;82.26;100914.34;6300419;28;20138;-76
2021/07/24 09:25:48;;;;;;;9.55;6.20;;;;;;;19.94;82.46;100910.28;6301648;28;20147;-76
2021/07/24 09:29:09;;;;;;;10.90;5.63;;;;;;;19.94;81.98;100904.94;6309334;28;20051;-76
2021/07/24 09:32:10;;;;;;;10.55;5.53;;;;;;;19.99;80.84;100908.91;6320295;28;20419;-76
2021/07/24 09:35:12;;;;;;;15.13;5.43;;;;;;;20.13;80.86;100893.47;6324944;28;20051;-76
2021/07/24 09:38:26;;;;;;;8.57;5.80;;;;;;;20.16;79.85;100882.50;6325590;28;20064;-76
2021/07/24 09:41:28;;;;;;;8.25;5.78;;;;;;;20.25;80.76;100871.81;6324470;28;20129;-77
2021/07/24 09:44:31;;;;;;;8.85;5.78;;;;;;;20.43;79.79;100873.78;6325481;28;20059;-76
2021/07/24 09:47:32;;;;;;;14.60;5.85;;;;;;;20.54;77.87;100865.66;6321800;28;20044;-77
2021/07/24 09:50:34;;;;;;;12.10;6.57;;;;;;;20.60;77.74;100857.06;6324509;28;20048;-76
2021/07/24 09:53:37;;;;;;;16.83;6.45;;;;;;;20.71;78.06;100845.34;6325144;28;20051;-78
2021/07/24 09:56:40;;;;;;;11.77;6.18;;;;;;;20.78;78.25;100844.63;6324904;28;20048;-76
2021/07/24 09:59:42;;;;;;;11.75;5.93;;;;;;;20.91;77.97;100840.81;6325128;28;20051;-77
2021/07/24 10:02:44;;;;;;;12.48;6.03;;;;;;;20.94;77.36;100835.19;6325139;28;20051;-77
2021/07/24 10:05:46;;;;;;;13.18;5.80;;;;;;;21.10;77.55;100829.19;6322437;28;20052;-77
2021/07/24 10:08:49;;;;;;;15.77;6.55;;;;;;;21.25;77.57;100820.50;6324480;28;20051;-77
2021/07/24 10:11:53;;;;;;;13.30;6.70;;;;;;;21.39;75.14;100821.91;6323992;28;20051;-77
2021/07/24 10:14:56;;;;;;;11.63;6.55;;;;;;;21.46;75.37;100827.47;6322112;28;20044;-77
2021/07/24 10:17:59;;;;;;;11.05;5.65;;;;;;;21.57;76.06;100831.75;6318287;28;20048;-77
2021/07/24 10:21:01;;;;;;;9.02;6.07;;;;;;;21.69;74.07;100828.72;6324463;28;20048;-77
2021/07/24 10:24:03;;;;;;;9.88;6.35;;;;;;;21.76;74.13;100826.31;6325030;28;20052;-77
2021/07/24 10:27:10;;;;;;;16.63;7.13;;;;;;;21.94;72.60;100816.44;6324499;28;20562;-75
2021/07/24 10:30:14;;;;;;;16.48;7.95;;;;;;;22.11;71.38;100822.75;6324235;28;20495;-76
2021/07/24 10:33:17;;;;;;;15.05;6.43;;;;;;;22.13;72.13;100825.31;6323175;28;20056;-76
2021/07/24 10:36:19;;;;;;;49.00;15.10;;;;;;;22.12;73.29;100819.13;6323766;28;20055;-76
2021/07/24 10:39:21;;;;;;;10.70;6.45;;;;;;;22.25;72.75;100808.00;6323969;28;20048;-76
2021/07/24 10:42:37;;;;;;;12.68;6.78;;;;;;;22.36;72.00;100806.91;6323744;28;20044;-76
2021/07/24 10:45:55;;;;;;;9.82;7.03;;;;;;;22.51;69.91;100808.00;6324983;28;20048;-77
2021/07/24 10:48:56;;;;;;;10.93;6.63;;;;;;;22.64;70.62;100805.75;6326014;28;20054;-77
2021/07/24 10:51:59;;;;;;;14.68;7.95;;;;;;;22.91;70.54;100799.41;6325638;28;20048;-76
2021/07/24 10:55:12;;;;;;;10.25;6.97;;;;;;;23.00;70.73;100790.38;6312744;28;20041;-77
2021/07/24 10:58:18;;;;;;;9.10;6.53;;;;;;;23.03;70.28;100794.59;6314738;28;20476;-77
2021/07/24 11:01:44;;;;;;;10.65;7.00;;;;;;;22.98;69.86;100787.03;6305482;28;20062;-77
2021/07/24 11:04:46;;;;;;;9.45;7.10;;;;;;;22.98;69.61;100788.84;6299797;28;20071;-77
2021/07/24 11:07:47;;;;;;;13.45;7.68;;;;;;;22.99;71.98;100785.19;6300355;28;20048;-77
2021/07/24 11:11:10;;;;;;;8.90;6.60;;;;;;;23.02;71.27;100790.22;6301102;28;20045;-78
2021/07/24 11:14:45;;;;;;;19.10;7.05;;;;;;;23.15;70.63;100782.56;6300873;28;20053;-78
2021/07/24 11:18:24;;;;;;;12.50;7.45;;;;;;;23.35;70.08;100783.13;6300121;28;20086;-77
2021/07/24 11:21:40;;;;;;;;;;;;;;;23.75;67.83;100773.47;6300624;28;20051;-78
2021/07/24 11:24:43;;;;;;;13.55;7.60;;;;;;;24.10;67.27;100768.78;6299776;28;19947;-78
2021/07/24 11:27:49;;;;;;;9.82;7.38;;;;;;;24.42;66.08;100754.50;6299930;28;20415;-77
2021/07/24 11:30:58;;;;;;;10.65;7.72;;;;;;;24.84;66.93;100756.03;6300325;28;20056;-77
2021/07/24 11:34:01;;;;;;;13.10;7.70;;;;;;;25.20;62.55;100745.63;6313113;28;20043;-76
2021/07/24 11:37:03;;;;;;;19.05;8.73;;;;;;;25.56;60.60;100748.59;6325107;28;20126;-77
2021/07/24 11:40:07;;;;;;;13.70;8.27;;;;;;;25.77;60.80;100748.78;6322990;28;20046;-76
2021/07/24 11:43:08;;;;;;;13.77;8.07;;;;;;;26.13;58.56;100750.00;6324944;28;20055;-77
2021/07/24 11:46:11;;;;;;;11.82;7.60;;;;;;;26.35;56.31;100745.56;6324211;28;20078;-77
2021/07/24 11:49:14;;;;;;;12.60;8.20;;;;;;;26.40;57.62;100740.47;6326085;28;20070;-77
2021/07/24 11:52:22;;;;;;;11.68;8.18;;;;;;;26.40;56.47;100735.91;6326204;28;20051;-77
2021/07/24 11:55:25;;;;;;;10.40;7.88;;;;;;;26.82;55.22;100734.41;6326022;28;20059;-78
2021/07/24 11:58:27;;;;;;;13.65;7.88;;;;;;;27.16;57.83;100728.44;6327353;28;20059;-78
2021/07/24 12:01:28;;;;;;;13.23;7.28;;;;;;;27.41;55.19;100728.06;6326842;28;20048;-78
2021/07/24 12:04:31;;;;;;;13.75;7.88;;;;;;;27.68;55.29;100734.56;6327827;28;20055;-77
2021/07/24 12:07:32;;;;;;;15.82;8.05;;;;;;;27.75;52.68;100727.34;6328493;28;20059;-78
2021/07/24 12:10:35;;;;;;;17.95;8.48;;;;;;;27.87;53.17;100720.41;6327704;28;20051;-78
2021/07/24 12:13:36;;;;;;;14.40;7.70;;;;;;;27.96;53.26;100707.59;6329045;28;20048;-78
2021/07/24 12:16:39;;;;;;;14.70;7.40;;;;;;;28.13;50.25;100713.53;6331402;28;20048;-78
2021/07/24 12:19:43;;;;;;;10.43;7.78;;;;;;;28.19;51.57;100705.47;6330372;28;20050;-78
2021/07/24 12:22:45;;;;;;;12.48;8.27;;;;;;;28.22;50.66;100691.56;6332042;28;20043;-79
2021/07/24 12:25:46;;;;;;;11.88;7.82;;;;;;;28.41;52.14;100694.59;6330688;28;20059;-79
2021/07/24 12:28:47;;;;;;;12.65;7.72;;;;;;;28.47;49.22;100691.09;6330833;28;20666;-78
2021/07/24 12:31:50;;;;;;;13.43;7.60;;;;;;;28.45;49.55;100688.59;6330827;28;20055;-78
2021/07/24 12:34:53;;;;;;;13.85;8.38;;;;;;;28.45;50.65;100685.91;6331047;28;20059;-79
2021/07/24 12:38:02;;;;;;;12.45;7.82;;;;;;;28.33;51.53;100690.97;6330428;28;20048;-77
2021/07/24 12:41:05;;;;;;;14.27;7.80;;;;;;;28.49;50.97;100692.56;6329934;28;20051;-78
2021/07/24 12:44:08;;;;;;;12.00;7.35;;;;;;;28.41;52.39;100689.19;6329594;28;20048;-79
2021/07/24 12:47:12;;;;;;;11.80;7.32;;;;;;;28.64;49.53;100689.72;6329156;28;20518;-78
2021/07/24 12:50:17;;;;;;;14.98;8.00;;;;;;;28.98;51.28;100690.72;6328508;28;20051;-78
2021/07/24 12:53:20;;;;;;;24.17;8.27;;;;;;;29.21;50.88;100685.78;6327075;28;20044;-79
2021/07/24 12:56:21;;;;;;;13.88;8.45;;;;;;;29.41;47.40;100682.25;6328416;28;20052;-78
2021/07/24 12:59:22;;;;;;;13.93;8.43;;;;;;;29.54;47.96;100672.25;6327214;28;20078;-78
2021/07/24 13:02:26;;;;;;;17.67;8.10;;;;;;;29.63;47.20;100666.66;6325702;28;20040;-78
2021/07/24 13:05:28;;;;;;;19.08;7.63;;;;;;;29.55;46.87;100657.69;6326429;28;20071;-77
2021/07/24 13:08:30;;;;;;;19.80;7.88;;;;;;;29.47;48.19;100657.03;6325811;28;20414;-77
2021/07/24 13:11:31;;;;;;;14.52;7.70;;;;;;;29.70;47.19;100656.66;6326795;28;20055;-77
2021/07/24 13:14:33;;;;;;;16.13;7.55;;;;;;;29.70;47.65;100652.06;6327469;28;20055;-78
2021/07/24 13:17:34;;;;;;;13.93;7.53;;;;;;;29.46;47.21;100641.84;6326334;28;20048;-74
2021/07/24 13:20:37;;;;;;;12.77;7.85;;;;;;;29.58;47.21;100642.91;6326788;28;20048;-78
2021/07/24 13:23:38;;;;;;;12.52;8.65;;;;;;;29.54;48.23;100637.06;6328936;28;20423;-78
2021/07/24 13:29:58;;;;;;;12.77;7.97;;;;;;;29.23;48.52;100624.13;6325024;28;20044;-77
2021/07/24 13:32:59;;;;;;;14.90;7.32;;;;;;;29.42;49.09;100627.88;6321495;28;20055;-77
2021/07/24 13:36:02;;;;;;;16.15;8.18;;;;;;;29.36;47.11;100617.06;6324632;28;20070;-78
2021/07/24 13:39:04;;;;;;;13.20;7.93;;;;;;;29.44;48.10;100617.69;6323800;28;20048;-78
2021/07/24 13:42:06;;;;;;;11.63;8.20;;;;;;;29.56;47.48;100613.31;6325289;28;20139;-77
2021/07/24 13:45:09;;;;;;;25.90;8.80;;;;;;;29.42;48.61;100610.81;6325521;28;20063;-78
2021/07/24 13:48:11;;;;;;;15.68;8.48;;;;;;;29.27;48.36;100611.03;6327162;28;20052;-77
2021/07/24 13:51:13;;;;;;;13.27;8.35;;;;;;;29.08;49.56;100612.66;6328983;28;20040;-79
2021/07/24 13:54:15;;;;;;;14.07;8.48;;;;;;;28.94;49.56;100606.38;6326044;28;20628;-79
2021/07/24 13:57:16;;;;;;;14.00;8.05;;;;;;;28.93;47.04;100611.97;6327042;28;20047;-82
2021/07/24 14:00:18;;;;;;;15.85;8.18;;;;;;;29.16;48.18;100614.31;6325889;28;20051;-81
2021/07/24 14:03:19;;;;;;;23.65;8.45;;;;;;;29.36;48.32;100595.41;6325628;28;20040;-81